Time,TemperatureF,DewpointF,PressureIn,WindDirection,WindDirectionDegrees,WindSpeedMPH,WindSpeedGustMPH,Humidity,HourlyPrecipIn,Conditions,Clouds,dailyrainin,SoftwareType,DateUTC
2013-10-03 00:00:00,49.0,39.3,24.06,North,0,0.0,-999.0,69,0.00,,,0.00,,2013-10-03 07:00:00,
2013-10-03 01:00:00,48.6,38.5,24.07,North,0,0.0,-999.0,68,0.00,,,0.00,,2013-10-03 08:00:00,
2013-10-03 02:00:00,47.9,35.1,24.06,North,0,0.0,-999.0,61,0.00,,,0.00,,2013-10-03 09:00:00,
2013-10-03 03:00:00,48.4,34.3,24.05,North,0,0.0,-999.0,58,0.00,,,0.00,,2013-10-03 10:00:00,
2013-10-03 04:00:00,47.2,34.0,24.05,North,0,0.0,-999.0,60,0.00,,,0.00,,2013-10-03 11:00:00,
2013-10-03 05:00:00,46.1,33.4,24.05,North,0,0.0,-999.0,61,0.00,,,0.00,,2013-10-03 12:00:00,
2013-10-03 06:00:00,45.0,32.4,24.05,North,0,0.0,-999.0,61,0.00,,,0.00,,2013-10-03 13:00:00,
2013-10-03 07:05:00,43.4,31.6,24.05,North,0,0.0,-999.0,63,0.00,,,0.00,,2013-10-03 14:05:00,
2013-10-03 08:05:00,44.6,30.8,0.00,North,0,0.0,-999.0,58,0.00,,,0.00,,2013-10-03 15:05:00,
2013-10-03 09:05:00,47.0,30.7,0.00,North,0,0.0,-999.0,53,0.00,,,0.00,,2013-10-03 16:05:00,
2013-10-03 10:05:00,47.7,34.1,0.00,North,0,0.0,-999.0,59,0.00,,,0.00,,2013-10-03 17:05:00,
2013-10-03 11:05:00,49.3,33.3,0.00,North,0,0.0,-999.0,54,0.00,,,0.00,,2013-10-03 18:05:00,
2013-10-03 12:05:00,51.3,34.3,0.00,North,0,0.0,-999.0,52,0.00,,,0.00,,2013-10-03 19:05:00,
2013-10-03 13:05:00,53.1,33.3,0.00,North,0,0.0,-999.0,47,0.00,,,0.00,,2013-10-03 20:05:00,
2013-10-03 14:05:00,53.3,33.0,0.00,North,0,0.0,-999.0,46,0.00,,,0.00,,2013-10-03 21:05:00,
2013-10-03 15:05:00,51.5,33.5,0.00,North,0,0.0,-999.0,50,0.00,,,0.00,,2013-10-03 22:05:00,
2013-10-03 16:05:00,52.4,32.7,0.00,North,0,0.0,-999.0,47,0.00,,,0.00,,2013-10-03 23:05:00,
2013-10-03 17:05:00,51.8,32.8,0.00,North,0,0.0,-999.0,48,0.00,,,0.00,,2013-10-04 00:05:00,
2013-10-03 18:00:00,49.5,33.0,24.03,North,0,0.0,-999.0,53,0.00,,,0.00,,2013-10-04 01:00:00,
2013-10-03 19:00:00,47.3,32.9,24.03,North,0,0.0,-999.0,57,0.00,,,0.00,,2013-10-04 02:00:00,
2013-10-03 20:00:00,45.2,31.2,24.05,North,0,0.0,-999.0,58,0.00,,,0.00,,2013-10-04 03:00:00,
2013-10-03 21:00:00,43.6,28.8,24.06,North,0,0.0,-999.0,56,0.00,,,0.00,,2013-10-04 04:00:00,
2013-10-03 22:00:00,42.8,29.0,24.07,North,0,0.0,-999.0,58,0.00,,,0.00,,2013-10-04 05:00:00,
2013-10-03 23:00:00,42.1,28.8,24.08,North,0,0.0,-999.0,59,0.00,,,0.00,,2013-10-04 06:00:00,